Time;durP1;ratioP1;P1;durP2;ratioP2;P2;SDS_P1;SDS_P2;PMS_P1;PMS_P2;Temp;Humidity;BMP_temperature;BMP_pressure;BME280_temperature;BME280_humidity;BME280_pressure;Samples;Min_cycle;Max_cycle;Signal;HPM_P1;HPM_P2
2023/11/30 00:01:15;;;;;;;;;;;;;;;;;;5094407;28;19912;-74
2023/11/30 00:03:40;;;;;;;;;;;;;;;;;;5094054;28;19912;-74
2023/11/30 00:06:06;;;;;;;;;;;;;;;;;;5094388;28;19919;-74
2023/11/30 00:08:32;;;;;;;;;;;;;;;;;;5094412;28;20352;-74
2023/11/30 00:10:58;;;;;;;;;;;;;;;;;;5094110;28;19943;-74
2023/11/30 00:13:24;;;;;;;;;;;;;;;;;;5094251;28;19912;-74
2023/11/30 00:15:50;;;;;;;;;;;;;;;;;;5094464;28;19908;-74
2023/11/30 00:18:16;;;;;;;;;;;;;;;;;;5093772;28;19914;-74
2023/11/30 00:20:42;;;;;;;;;;;;;;;;;;5094110;28;19948;-74
2023/11/30 00:23:08;;;;;;;;;;;;;;;;;;5093735;28;19908;-74
2023/11/30 00:25:34;;;;;;;;;;;;;;;;;;5094024;28;19923;-74
2023/11/30 00:28:00;;;;;;;;;;;;;;;;;;5094075;28;19947;-74
2023/11/30 00:30:26;;;;;;;;;;;;;;;;;;5093625;28;19908;-74
2023/11/30 00:32:52;;;;;;;;;;;;;;;;;;5094254;28;19908;-74
2023/11/30 00:35:17;;;;;;;;;;;;;;;;;;5091094;28;20359;-74
2023/11/30 00:37:43;;;;;;;;;;;;;;;;;;5074781;28;19908;-74
2023/11/30 00:40:09;;;;;;;;;;;;;;;;;;5093491;28;19908;-74
2023/11/30 00:42:35;;;;;;;;;;;;;;;;;;5075633;28;19908;-74
2023/11/30 00:45:01;;;;;;;;;;;;;;;;;;5092799;28;20307;-74
2023/11/30 00:47:27;;;;;;;;;;;;;;;;;;5093779;28;20379;-74
2023/11/30 00:49:53;;;;;;;;;;;;;;;;;;5093697;28;19962;-74
2023/11/30 00:52:19;;;;;;;;;;;;;;;;;;5093227;28;19916;-74
2023/11/30 00:54:45;;;;;;;;;;;;;;;;;;5093684;28;19908;-74
2023/11/30 00:57:11;;;;;;;;;;;;;;;;;;5093750;28;19915;-74
2023/11/30 00:59:37;;;;;;;;;;;;;;;;;;5093303;28;19908;-74
2023/11/30 01:02:03;;;;;;;;;;;;;;;;;;5093393;28;19909;-74
2023/11/30 01:04:29;;;;;;;;;;;;;;;;;;5093248;28;19947;-74
2023/11/30 01:06:55;;;;;;;;;;;;;;;;;;5093178;28;19916;-74
2023/11/30 01:09:20;;;;;;;;;;;;;;;;;;5093535;28;19908;-74
2023/11/30 01:11:46;;;;;;;;;;;;;;;;;;5093484;28;19977;-74
2023/11/30 01:14:12;;;;;;;;;;;;;;;;;;5092938;28;20351;-74
2023/11/30 01:16:38;;;;;;;;;;;;;;;;;;5093391;28;19915;-74
2023/11/30 01:19:04;;;;;;;;;;;;;;;;;;5093367;28;19912;-75
2023/11/30 01:21:30;;;;;;;;;;;;;;;;;;5093015;28;20401;-75
2023/11/30 01:23:56;;;;;;;;;;;;;;;;;;5092907;28;19909;-74
2023/11/30 01:26:22;;;;;;;;;;;;;;;;;;5093242;28;19918;-74
2023/11/30 01:28:48;;;;;;;;;;;;;;;;;;5075088;28;19954;-73
2023/11/30 01:31:14;;;;;;;;;;;;;;;;;;5093288;28;19919;-75
2023/11/30 01:33:40;;;;;;;;;;;;;;;;;;5092923;28;19914;-75
2023/11/30 01:36:06;;;;;;;;;;;;;;;;;;5092963;28;20410;-74
2023/11/30 01:38:32;;;;;;;;;;;;;;;;;;5093293;28;20349;-75
2023/11/30 01:40:58;;;;;;;;;;;;;;;;;;5092884;28;19915;-75
2023/11/30 01:43:24;;;;;;;;;;;;;;;;;;5074652;28;19912;-73
2023/11/30 01:45:50;;;;;;;;;;;;;;;;;;5074991;28;19921;-74
2023/11/30 01:48:16;;;;;;;;;;;;;;;;;;5092636;28;20374;-74
2023/11/30 01:50:42;;;;;;;;;;;;;;;;;;5093080;28;19908;-74
2023/11/30 01:53:08;;;;;;;;;;;;;;;;;;5096045;28;19915;-74
2023/11/30 01:55:33;;;;;;;;;;;;;;;;;;5096296;28;19924;-74
2023/11/30 01:57:59;;;;;;;;;;;;;;;;;;5096516;28;19909;-75
2023/11/30 02:00:25;;;;;;;;;;;;;;;;;;5096641;28;19999;-75
2023/11/30 02:02:51;;;;;;;;;;;;;;;;;;5096476;28;19922;-74
2023/11/30 02:05:17;;;;;;;;;;;;;;;;;;5096288;28;20283;-74
2023/11/30 02:07:43;;;;;;;;;;;;;;;;;;5096503;28;19990;-75
2023/11/30 02:10:09;;;;;;;;;;;;;;;;;;5095834;28;19993;-74
2023/11/30 02:12:35;;;;;;;;;;;;;;;;;;5096420;28;19915;-74
2023/11/30 02:15:01;;;;;;;;;;;;;;;;;;5096522;28;19999;-74
2023/11/30 02:17:27;;;;;;;;;;;;;;;;;;5095941;28;19915;-74
2023/11/30 02:19:53;;;;;;;;;;;;;;;;;;5078039;28;19908;-74
2023/11/30 02:22:19;;;;;;;;;;;;;;;;;;5078023;28;19908;-74
2023/11/30 02:24:45;;;;;;;;;;;;;;;;;;5095397;28;20314;-74
2023/11/30 02:27:11;;;;;;;;;;;;;;;;;;5096051;28;20351;-74
2023/11/30 02:29:37;;;;;;;;;;;;;;;;;;5096117;28;19947;-75
2023/11/30 02:32:03;;;;;;;;;;;;;;;;;;5095480;28;19908;-74
2023/11/30 02:34:29;;;;;;;;;;;;;;;;;;5077943;28;19908;-75
2023/11/30 02:36:55;;;;;;;;;;;;;;;;;;5077474;28;19916;-75
2023/11/30 02:39:21;;;;;;;;;;;;;;;;;;5096021;28;19908;-74
2023/11/30 02:41:47;;;;;;;;;;;;;;;;;;5096002;28;19919;-74
2023/11/30 02:44:13;;;;;;;;;;;;;;;;;;5095519;28;19937;-74
2023/11/30 02:46:39;;;;;;;;;;;;;;;;;;5078022;28;19914;-74
2023/11/30 02:49:05;;;;;;;;;;;;;;;;;;5095922;28;19939;-74
2023/11/30 02:51:31;;;;;;;;;;;;;;;;;;5077324;28;19912;-74
2023/11/30 02:53:57;;;;;;;;;;;;;;;;;;5095799;28;20364;-74
2023/11/30 02:56:23;;;;;;;;;;;;;;;;;;5096038;28;19908;-74
2023/11/30 02:58:49;;;;;;;;;;;;;;;;;;5095302;28;19908;-74
2023/11/30 03:01:15;;;;;;;;;;;;;;;;;;5095773;28;19952;-74
2023/11/30 03:03:40;;;;;;;;;;;;;;;;;;5095756;28;19908;-74
2023/11/30 03:06:06;;;;;;;;;;;;;;;;;;5077390;28;19916;-74
2023/11/30 03:08:32;;;;;;;;;;;;;;;;;;5095545;28;19912;-74
2023/11/30 03:10:58;;;;;;;;;;;;;;;;;;5095444;28;19912;-74
2023/11/30 03:13:24;;;;;;;;;;;;;;;;;;5094981;28;19912;-72
2023/11/30 03:15:50;;;;;;;;;;;;;;;;;;5095306;28;19908;-72
2023/11/30 03:18:16;;;;;;;;;;;;;;;;;;5077179;28;20276;-72
2023/11/30 03:20:42;;;;;;;;;;;;;;;;;;5094909;28;19944;-73
2023/11/30 03:23:08;;;;;;;;;;;;;;;;;;5077048;28;19915;-72
2023/11/30 03:25:35;;;;;;;;;;;;;;;;;;5095071;28;20007;-72
2023/11/30 03:28:02;;;;;;;;;;;;;;;;;;5094832;28;19908;-72
2023/11/30 03:30:28;;;;;;;;;;;;;;;;;;5095031;28;20310;-72
2023/11/30 03:32:54;;;;;;;;;;;;;;;;;;5076889;28;19912;-72
2023/11/30 03:35:20;;;;;;;;;;;;;;;;;;5094649;28;19912;-72
2023/11/30 03:37:45;;;;;;;;;;;;;;;;;;5094920;28;20267;-73
2023/11/30 03:40:11;;;;;;;;;;;;;;;;;;5076319;28;20248;-75
2023/11/30 03:42:37;;;;;;;;;;;;;;;;;;5095023;28;19909;-75
2023/11/30 03:45:03;;;;;;;;;;;;;;;;;;5094546;28;20327;-72
2023/11/30 03:47:29;;;;;;;;;;;;;;;;;;5094788;28;19947;-73
2023/11/30 03:49:55;;;;;;;;;;;;;;;;;;5076476;28;19915;-73
2023/11/30 03:52:21;;;;;;;;;;;;;;;;;;5094703;28;19974;-72
2023/11/30 03:54:47;;;;;;;;;;;;;;;;;;5076043;28;19953;-73
2023/11/30 03:57:13;;;;;;;;;;;;;;;;;;5094524;28;19994;-73
2023/11/30 03:59:39;;;;;;;;;;;;;;;;;;5076231;28;19909;-75
2023/11/30 04:02:05;;;;;;;;;;;;;;;;;;5094008;28;19908;-73
2023/11/30 04:04:31;;;;;;;;;;;;;;;;;;5094375;28;19920;-73
2023/11/30 04:06:56;;;;;;;;;;;;;;;;;;5094368;28;20003;-73
2023/11/30 04:09:22;;;;;;;;;;;;;;;;;;5093958;28;19915;-73
2023/11/30 04:11:48;;;;;;;;;;;;;;;;;;5076234;28;19915;-73
2023/11/30 04:14:14;;;;;;;;;;;;;;;;;;5093890;28;19954;-72
2023/11/30 04:16:40;;;;;;;;;;;;;;;;;;5075766;28;19912;-73
2023/11/30 04:19:06;;;;;;;;;;;;;;;;;;5094389;28;19912;-73
2023/11/30 04:21:32;;;;;;;;;;;;;;;;;;5094245;28;19991;-73
2023/11/30 04:23:58;;;;;;;;;;;;;;;;;;5093697;28;19951;-73
2023/11/30 04:26:24;;;;;;;;;;;;;;;;;;5076031;28;20446;-74
2023/11/30 04:28:50;;;;;;;;;;;;;;;;;;5094119;28;20386;-74
2023/11/30 04:31:16;;;;;;;;;;;;;;;;;;5093627;28;19908;-74
2023/11/30 04:33:42;;;;;;;;;;;;;;;;;;5094055;28;19961;-74
2023/11/30 04:36:08;;;;;;;;;;;;;;;;;;5094468;28;19912;-74
2023/11/30 04:38:34;;;;;;;;;;;;;;;;;;5093584;28;19919;-74
2023/11/30 04:41:00;;;;;;;;;;;;;;;;;;5075782;28;19908;-75
2023/11/30 04:43:26;;;;;;;;;;;;;;;;;;5075286;28;20014;-73
2023/11/30 04:45:52;;;;;;;;;;;;;;;;;;5094142;28;20387;-74
2023/11/30 04:48:18;;;;;;;;;;;;;;;;;;5093801;28;20372;-74
2023/11/30 04:50:44;;;;;;;;;;;;;;;;;;5075302;28;19918;-74
2023/11/30 04:53:10;;;;;;;;;;;;;;;;;;5075630;28;19908;-74
2023/11/30 04:55:36;;;;;;;;;;;;;;;;;;5093780;28;19912;-74
2023/11/30 04:58:02;;;;;;;;;;;;;;;;;;5093378;28;20287;-74
2023/11/30 05:00:28;;;;;;;;;;;;;;;;;;5093718;28;20025;-74
2023/11/30 05:02:55;;;;;;;;;;;;;;;;;;5093759;28;20279;-74
2023/11/30 05:05:21;;;;;;;;;;;;;;;;;;5075028;28;19966;-74
2023/11/30 05:07:47;;;;;;;;;;;;;;;;;;5093693;28;19908;-74
2023/11/30 05:10:13;;;;;;;;;;;;;;;;;;5093749;28;19958;-74
2023/11/30 05:12:39;;;;;;;;;;;;;;;;;;5093205;28;20348;-74
2023/11/30 05:15:05;;;;;;;;;;;;;;;;;;5093782;28;20272;-74
2023/11/30 05:17:31;;;;;;;;;;;;;;;;;;5093603;28;19919;-74
2023/11/30 05:19:57;;;;;;;;;;;;;;;;;;5093230;28;19909;-74
2023/11/30 05:22:23;;;;;;;;;;;;;;;;;;5093642;28;20007;-74
2023/11/30 05:24:51;;;;;;;;;;;;;;;;;;5093380;28;19924;-74
2023/11/30 05:27:17;;;;;;;;;;;;;;;;;;5095121;28;19961;-74
2023/11/30 05:29:43;;;;;;;;;;;;;;;;;;5079359;28;19934;-75
2023/11/30 05:32:09;;;;;;;;;;;;;;;;;;5097500;28;19909;-75
2023/11/30 05:34:35;;;;;;;;;;;;;;;;;;5096951;28;19915;-75
2023/11/30 05:37:03;;;;;;;;;;;;;;;;;;5097336;28;20348;-74
2023/11/30 05:39:29;;;;;;;;;;;;;;;;;;5097481;28;19994;-74
2023/11/30 05:41:55;;;;;;;;;;;;;;;;;;5096670;28;20000;-74
2023/11/30 05:44:21;;;;;;;;;;;;;;;;;;5096849;28;19920;-74
2023/11/30 05:46:48;;;;;;;;;;;;;;;;;;5096719;28;19908;-75
2023/11/30 05:49:14;;;;;;;;;;;;;;;;;;5097027;28;20456;-73
2023/11/30 05:51:40;;;;;;;;;;;;;;;;;;5096939;28;19911;-73
2023/11/30 05:54:06;;;;;;;;;;;;;;;;;;5096593;28;19908;-74
2023/11/30 05:56:31;;;;;;;;;;;;;;;;;;5096871;28;20409;-73
2023/11/30 05:58:57;;;;;;;;;;;;;;;;;;5096821;28;20278;-74
2023/11/30 06:01:23;;;;;;;;;;;;;;;;;;5096408;28;20280;-73
2023/11/30 06:03:49;;;;;;;;;;;;;;;;;;5096915;28;19954;-74
2023/11/30 06:06:15;;;;;;;;;;;;;;;;;;5096679;28;19916;-74
2023/11/30 06:08:41;;;;;;;;;;;;;;;;;;5096231;28;19937;-74
2023/11/30 06:11:07;;;;;;;;;;;;;;;;;;5096524;28;19931;-74
2023/11/30 06:13:34;;;;;;;;;;;;;;;;;;5096471;28;19908;-74
2023/11/30 06:16:00;;;;;;;;;;;;;;;;;;5096434;28;19978;-74
2023/11/30 06:18:26;;;;;;;;;;;;;;;;;;5082316;28;19912;-74
2023/11/30 06:20:52;;;;;;;;;;;;;;;;;;5092160;28;19912;-74
2023/11/30 06:23:18;;;;;;;;;;;;;;;;;;5091040;28;19971;-72
2023/11/30 06:25:44;;;;;;;;;;;;;;;;;;5067768;28;19947;-70
2023/11/30 06:28:10;;;;;;;;;;;;;;;;;;5087160;28;19913;-73
2023/11/30 06:30:36;;;;;;;;;;;;;;;;;;5075090;28;19920;-73
2023/11/30 06:33:02;;;;;;;;;;;;;;;;;;5092578;28;19912;-72
2023/11/30 06:35:27;;;;;;;;;;;;;;;;;;5086841;28;20425;-71
2023/11/30 06:37:54;;;;;;;;;;;;;;;;;;5087322;28;20360;-70
2023/11/30 06:40:20;;;;;;;;;;;;;;;;;;5085548;28;19919;-70
2023/11/30 06:42:46;;;;;;;;;;;;;;;;;;5083772;28;19912;-72
2023/11/30 06:45:12;;;;;;;;;;;;;;;;;;5080393;28;19966;-69
2023/11/30 06:47:38;;;;;;;;;;;;;;;;;;5075936;28;19915;-70
2023/11/30 06:50:04;;;;;;;;;;;;;;;;;;5084545;28;19916;-69
2023/11/30 06:52:30;;;;;;;;;;;;;;;;;;5096791;28;19950;-70
2023/11/30 06:54:56;;;;;;;;;;;;;;;;;;5084899;28;19959;-70
2023/11/30 06:57:22;;;;;;;;;;;;;;;;;;5092059;28;19908;-72
2023/11/30 06:59:48;;;;;;;;;;;;;;;;;;5093028;28;19916;-70
2023/11/30 07:02:14;;;;;;;;;;;;;;;;;;5085059;28;19992;-70
2023/11/30 07:04:40;;;;;;;;;;;;;;;;;;5080892;28;19920;-71
2023/11/30 07:07:07;;;;;;;;;;;;;;;;;;5080709;28;20439;-71
2023/11/30 07:09:34;;;;;;;;;;;;;;;;;;5089075;28;19912;-72
2023/11/30 07:12:00;;;;;;;;;;;;;;;;;;5083190;28;19920;-72
2023/11/30 07:14:26;;;;;;;;;;;;;;;;;;5086199;28;19967;-72
2023/11/30 07:16:52;;;;;;;;;;;;;;;;;;5053371;28;19908;-71
2023/11/30 07:19:18;;;;;;;;;;;;;;;;;;5053288;28;20494;-73
2023/11/30 07:21:44;;;;;;;;;;;;;;;;;;5071655;28;20465;-73
2023/11/30 07:24:09;;;;;;;;;;;;;;;;;;5087927;28;19919;-74
2023/11/30 07:26:35;;;;;;;;;;;;;;;;;;5091071;28;19912;-74
2023/11/30 07:29:02;;;;;;;;;;;;;;;;;;5091673;28;19908;-73
2023/11/30 07:31:28;;;;;;;;;;;;;;;;;;5089468;28;20367;-73
2023/11/30 07:33:53;;;;;;;;;;;;;;;;;;5091809;28;19958;-74
2023/11/30 07:36:19;;;;;;;;;;;;;;;;;;5068872;28;19920;-75
2023/11/30 07:38:45;;;;;;;;;;;;;;;;;;5090550;28;20428;-73
2023/11/30 07:41:12;;;;;;;;;;;;;;;;;;5086955;28;19919;-74
2023/11/30 07:43:38;;;;;;;;;;;;;;;;;;5069931;28;19920;-74
2023/11/30 07:46:04;;;;;;;;;;;;;;;;;;5071037;28;19985;-75
2023/11/30 07:48:30;;;;;;;;;;;;;;;;;;5088194;28;19922;-74
2023/11/30 07:50:56;;;;;;;;;;;;;;;;;;5072793;28;19924;-75
2023/11/30 07:53:23;;;;;;;;;;;;;;;;;;5090164;28;20018;-77
2023/11/30 07:55:54;;;;;;;;;;;;;;;;;;5091208;28;19916;-77
2023/11/30 07:58:21;;;;;;;;;;;;;;;;;;5089391;28;19912;-75
2023/11/30 08:00:47;;;;;;;;;;;;;;;;;;5083846;28;19982;-77
2023/11/30 08:03:13;;;;;;;;;;;;;;;;;;5088582;28;19908;-75
2023/11/30 08:05:39;;;;;;;;;;;;;;;;;;5072914;28;19999;-79
2023/11/30 08:08:05;;;;;;;;;;;;;;;;;;5065335;28;19921;-76
2023/11/30 08:10:34;;;;;;;;;;;;;;;;;;5090086;28;19908;-77
2023/11/30 08:13:00;;;;;;;;;;;;;;;;;;5090111;28;19960;-77
2023/11/30 08:15:26;;;;;;;;;;;;;;;;;;5066237;28;19912;-75
2023/11/30 08:17:52;;;;;;;;;;;;;;;;;;5071819;28;19916;-79
2023/11/30 08:20:18;;;;;;;;;;;;;;;;;;5089991;28;19908;-75
2023/11/30 08:22:44;;;;;;;;;;;;;;;;;;5088661;28;19920;-78
2023/11/30 08:25:13;;;;;;;;;;;;;;;;;;5072513;28;19927;-76
2023/11/30 08:27:39;;;;;;;;;;;;;;;;;;5089794;28;19912;-76
2023/11/30 08:30:05;;;;;;;;;;;;;;;;;;5088744;28;20383;-75
2023/11/30 08:32:31;;;;;;;;;;;;;;;;;;5089178;28;20017;-71
2023/11/30 08:34:57;;;;;;;;;;;;;;;;;;5086705;28;20370;-72
2023/11/30 08:37:23;;;;;;;;;;;;;;;;;;5070443;28;19935;-73
2023/11/30 08:39:49;;;;;;;;;;;;;;;;;;5090961;28;19938;-71
2023/11/30 08:42:15;;;;;;;;;;;;;;;;;;5072200;28;20270;-82
2023/11/30 08:44:41;;;;;;;;;;;;;;;;;;5089249;28;19989;-76
2023/11/30 08:47:08;;;;;;;;;;;;;;;;;;5091279;28;20372;-80
2023/11/30 08:49:34;;;;;;;;;;;;;;;;;;5090023;28;19955;-74
2023/11/30 08:52:00;;;;;;;;;;;;;;;;;;5090774;28;20333;-77
2023/11/30 08:54:26;;;;;;;;;;;;;;;;;;5090684;28;19912;-77
2023/11/30 08:56:52;;;;;;;;;;;;;;;;;;5072297;28;20756;-74
2023/11/30 08:59:18;;;;;;;;;;;;;;;;;;5091688;28;19909;-79
2023/11/30 09:01:45;;;;;;;;;;;;;;;;;;5070313;28;19912;-76
2023/11/30 09:04:15;;;;;;;;;;;;;;;;;;5093797;28;19938;-77
2023/11/30 09:06:41;;;;;;;;;;;;;;;;;;5092966;28;19908;-77
2023/11/30 09:09:07;;;;;;;;;;;;;;;;;;5079584;28;19974;-75
2023/11/30 09:11:34;;;;;;;;;;;;;;;;;;5104595;27;19959;-74
2023/11/30 09:14:00;;;;;;;;;;;;;;;;;;5087770;28;20316;-78
2023/11/30 09:16:27;;;;;;;;;;;;;;;;;;5105939;28;20010;-73
2023/11/30 09:18:55;;;;;;;;;;;;;;;;;;5114786;28;19916;-75
2023/11/30 09:21:21;;;;;;;;;;;;;;;;;;5101346;28;19916;-73
2023/11/30 09:23:48;;;;;;;;;;;;;;;;;;5065387;28;19952;-75
2023/11/30 09:26:13;;;;;;;;;;;;;;;;;;5064449;28;20434;-76
2023/11/30 09:28:39;;;;;;;;;;;;;;;;;;5094037;28;20016;-74
2023/11/30 09:31:06;;;;;;;;;;;;;;;;;;5076304;28;19912;-75
2023/11/30 09:33:32;;;;;;;;;;;;;;;;;;5076114;28;20277;-76
2023/11/30 09:35:59;;;;;;;;;;;;;;;;;;5070253;28;19995;-75
2023/11/30 09:38:25;;;;;;;;;;;;;;;;;;5066026;28;20387;-77
2023/11/30 09:40:50;;;;;;;;;;;;;;;;;;5069991;28;19912;-77
2023/11/30 09:43:17;;;;;;;;;;;;;;;;;;5092912;28;19908;-76
2023/11/30 09:45:43;;;;;;;;;;;;;;;;;;5093859;28;19928;-75
2023/11/30 09:48:09;;;;;;;;;;;;;;;;;;5093299;28;19921;-79
2023/11/30 09:50:35;;;;;;;;;;;;;;;;;;5089936;28;19934;-74
2023/11/30 09:53:01;;;;;;;;;;;;;;;;;;5085459;28;19913;-79
2023/11/30 09:55:26;;;;;;;;;;;;;;;;;;5085485;28;19920;-78
2023/11/30 09:57:52;;;;;;;;;;;;;;;;;;5093391;28;20001;-75
2023/11/30 10:00:20;;;;;;;;;;;;;;;;;;5076688;28;19935;-78
2023/11/30 10:02:47;;;;;;;;;;;;;;;;;;5076239;28;20051;-77
2023/11/30 10:05:16;;;;;;;;;;;;;;;;;;5093884;28;19916;-79
2023/11/30 10:07:42;;;;;;;;;;;;;;;;;;5089244;28;19923;-73
2023/11/30 10:10:08;;;;;;;;;;;;;;;;;;5070926;28;19912;-75
2023/11/30 10:12:34;;;;;;;;;;;;;;;;;;5088500;28;19956;-77
2023/11/30 10:15:00;;;;;;;;;;;;;;;;;;5090330;28;20488;-79
2023/11/30 10:17:28;;;;;;;;;;;;;;;;;;5092759;28;20372;-81
2023/11/30 10:19:53;;;;;;;;;;;;;;;;;;5094990;28;19915;-83
2023/11/30 10:22:20;;;;;;;;;;;;;;;;;;5114063;28;19916;-86
2023/11/30 10:24:46;;;;;;;;;;;;;;;;;;5112398;28;19997;-70
2023/11/30 10:27:13;;;;;;;;;;;;;;;;;;5092077;28;19959;-72
2023/11/30 10:29:41;;;;;;;;;;;;;;;;;;5093712;28;19916;-72
2023/11/30 10:32:07;;;;;;;;;;;;;;;;;;5091290;28;20354;-72
2023/11/30 10:34:33;;;;;;;;;;;;;;;;;;5086328;28;20276;-73
2023/11/30 10:37:02;;;;;;;;;;;;;;;;;;5089362;28;19927;-74
2023/11/30 10:39:30;;;;;;;;;;;;;;;;;;5089046;28;19916;-72
2023/11/30 10:41:58;;;;;;;;;;;;;;;;;;5086814;28;19955;-73
2023/11/30 10:44:25;;;;;;;;;;;;;;;;;;5089362;28;20291;-73
2023/11/30 10:46:54;;;;;;;;;;;;;;;;;;5090653;28;20330;-72
2023/11/30 10:49:21;;;;;;;;;;;;;;;;;;5087659;28;19920;-70
2023/11/30 10:51:50;;;;;;;;;;;;;;;;;;5091313;28;19957;-72
2023/11/30 10:54:25;;;;;;;;;;;;;;;;;;5094036;28;19916;-71
2023/11/30 10:56:50;;;;;;;;;;;;;;;;;;5094022;28;19938;-71
2023/11/30 11:00:33;;;;;;;;;;;;;;;;;;5089390;27;2213319;-69
2023/11/30 11:02:59;;;;;;;;;;;;;;;;;;5154659;27;19912;-74
2023/11/30 11:07:10;;;;;;;;;;;;;;;;;;5108105;27;19916;-72
2023/11/30 11:09:36;;;;;;;;;;;;;;;;;;5091147;28;19946;-75
2023/11/30 11:14:44;;;;;;;;;;;;;;;;;;5097346;27;20301;-70
2023/11/30 11:20:38;;;;;;;;;;;;;;;;;;5086009;28;19916;-71
2023/11/30 11:23:04;;;;;;;;;;;;;;;;;;5085293;28;19912;-68
2023/11/30 11:25:29;;;;;;;;;;;;;;;;;;5084784;28;19966;-70
2023/11/30 11:29:39;;;;;;;;;;;;;;;;;;5087692;27;19918;-69
2023/11/30 11:32:05;;;;;;;;;;;;;;;;;;5087612;28;20284;-68
2023/11/30 11:34:31;;;;;;;;;;;;;;;;;;5088000;28;19954;-69
2023/11/30 11:36:57;;;;;;;;;;;;;;;;;;5085033;28;19919;-68
2023/11/30 11:39:23;;;;;;;;;;;;;;;;;;5084678;28;20011;-68
2023/11/30 11:41:49;;;;;;;;;;;;;;;;;;5086268;28;19961;-68
2023/11/30 11:44:15;;;;;;;;;;;;;;;;;;5084802;28;19912;-68
2023/11/30 11:46:42;;;;;;;;;;;;;;;;;;5084991;28;19934;-70
2023/11/30 11:49:08;;;;;;;;;;;;;;;;;;5089883;28;19924;-70
2023/11/30 11:51:34;;;;;;;;;;;;;;;;;;5093945;28;20003;-70
2023/11/30 11:54:01;;;;;;;;;;;;;;;;;;5082765;28;19909;-70
2023/11/30 11:56:26;;;;;;;;;;;;;;;;;;5083836;28;19913;-71
2023/11/30 11:58:52;;;;;;;;;;;;;;;;;;5083716;28;19953;-70
2023/11/30 12:01:18;;;;;;;;;;;;;;;;;;5084981;28;19977;-71
2023/11/30 12:03:47;;;;;;;;;;;;;;;;;;5087609;28;19939;-72
2023/11/30 12:06:13;;;;;;;;;;;;;;;;;;5095622;28;20465;-71
2023/11/30 12:08:39;;;;;;;;;;;;;;;;;;5084727;28;19920;-75
2023/11/30 12:11:05;;;;;;;;;;;;;;;;;;5085416;28;19915;-72
2023/11/30 12:13:37;;;;;;;;;;;;;;;;;;5084245;28;19912;-72
2023/11/30 12:16:03;;;;;;;;;;;;;;;;;;5080915;28;19936;-73
2023/11/30 12:18:29;;;;;;;;;;;;;;;;;;5096047;28;20379;-73
2023/11/30 12:20:55;;;;;;;;;;;;;;;;;;5085400;28;19999;-72
2023/11/30 12:23:21;;;;;;;;;;;;;;;;;;5087619;28;19951;-71
2023/11/30 12:25:47;;;;;;;;;;;;;;;;;;5088902;28;19916;-72
2023/11/30 12:28:13;;;;;;;;;;;;;;;;;;5088033;28;19975;-72
2023/11/30 12:30:39;;;;;;;;;;;;;;;;;;5088355;28;19919;-73
2023/11/30 12:33:05;;;;;;;;;;;;;;;;;;5086989;28;19914;-71
2023/11/30 12:35:31;;;;;;;;;;;;;;;;;;5087790;28;19912;-72
2023/11/30 12:37:57;;;;;;;;;;;;;;;;;;5088903;28;19908;-71
2023/11/30 12:40:23;;;;;;;;;;;;;;;;;;5077179;28;19939;-71
2023/11/30 12:42:49;;;;;;;;;;;;;;;;;;5072298;28;19913;-71
2023/11/30 12:45:15;;;;;;;;;;;;;;;;;;5072933;28;20007;-71
2023/11/30 12:47:41;;;;;;;;;;;;;;;;;;5073362;28;19916;-70
2023/11/30 12:50:07;;;;;;;;;;;;;;;;;;5071098;28;19916;-71
2023/11/30 12:52:33;;;;;;;;;;;;;;;;;;5073033;28;19912;-69
2023/11/30 12:54:59;;;;;;;;;;;;;;;;;;5072576;28;19918;-70
2023/11/30 12:57:25;;;;;;;;;;;;;;;;;;5076079;28;19913;-72
2023/11/30 12:59:51;;;;;;;;;;;;;;;;;;5074512;28;19994;-71
2023/11/30 13:02:17;;;;;;;;;;;;;;;;;;5072616;28;19915;-71
2023/11/30 13:04:42;;;;;;;;;;;;;;;;;;5078045;28;19919;-70
2023/11/30 13:07:10;;;;;;;;;;;;;;;;;;5074847;28;19912;-71
2023/11/30 13:09:36;;;;;;;;;;;;;;;;;;5071870;28;19970;-71
2023/11/30 13:12:02;;;;;;;;;;;;;;;;;;5073658;28;20382;-70
2023/11/30 13:14:28;;;;;;;;;;;;;;;;;;5048370;28;19923;-70
2023/11/30 13:16:54;;;;;;;;;;;;;;;;;;5064995;28;20372;-71
2023/11/30 13:19:20;;;;;;;;;;;;;;;;;;5073403;28;20353;-71
2023/11/30 13:21:46;;;;;;;;;;;;;;;;;;5074716;28;20005;-70
2023/11/30 13:24:12;;;;;;;;;;;;;;;;;;5069202;28;19962;-70
2023/11/30 13:26:38;;;;;;;;;;;;;;;;;;5070705;28;19912;-72
2023/11/30 13:29:04;;;;;;;;;;;;;;;;;;5071720;28;19920;-70
2023/11/30 13:31:30;;;;;;;;;;;;;;;;;;5081690;28;19912;-70
2023/11/30 13:33:56;;;;;;;;;;;;;;;;;;5072368;28;19916;-70
2023/11/30 13:36:22;;;;;;;;;;;;;;;;;;5072460;28;19943;-71
2023/11/30 13:38:48;;;;;;;;;;;;;;;;;;5072597;28;20525;-70
2023/11/30 13:41:14;;;;;;;;;;;;;;;;;;5072484;28;19916;-70
2023/11/30 13:43:40;;;;;;;;;;;;;;;;;;5072571;28;19908;-71
2023/11/30 13:46:09;;;;;;;;;;;;;;;;;;5077340;28;19987;-71
2023/11/30 13:48:35;;;;;;;;;;;;;;;;;;5072259;28;20022;-71
2023/11/30 13:51:00;;;;;;;;;;;;;;;;;;5071451;28;20339;-71
2023/11/30 13:53:28;;;;;;;;;;;;;;;;;;5071772;28;19909;-70
2023/11/30 13:55:54;;;;;;;;;;;;;;;;;;5072126;28;19912;-75
2023/11/30 13:58:20;;;;;;;;;;;;;;;;;;5073062;28;19926;-76
2023/11/30 14:00:46;;;;;;;;;;;;;;;;;;5074540;28;20017;-77
2023/11/30 14:03:12;;;;;;;;;;;;;;;;;;5074583;28;19908;-77
2023/11/30 14:05:38;;;;;;;;;;;;;;;;;;5074206;28;20003;-77
2023/11/30 14:08:04;;;;;;;;;;;;;;;;;;5073359;28;19999;-76
2023/11/30 14:10:30;;;;;;;;;;;;;;;;;;5074231;28;19923;-77
2023/11/30 14:12:56;;;;;;;;;;;;;;;;;;5074309;28;19931;-77
2023/11/30 14:15:23;;;;;;;;;;;;;;;;;;5073931;28;19908;-77
2023/11/30 14:17:49;;;;;;;;;;;;;;;;;;5074266;28;19913;-77
2023/11/30 14:20:15;;;;;;;;;;;;;;;;;;5073858;28;19916;-77
2023/11/30 14:22:41;;;;;;;;;;;;;;;;;;5072992;28;20357;-77
2023/11/30 14:25:08;;;;;;;;;;;;;;;;;;5074646;28;19908;-77
2023/11/30 14:27:35;;;;;;;;;;;;;;;;;;5073555;28;19925;-76
2023/11/30 14:30:01;;;;;;;;;;;;;;;;;;5072747;28;20004;-77
2023/11/30 14:32:26;;;;;;;;;;;;;;;;;;5072839;28;20249;-77
2023/11/30 14:34:53;;;;;;;;;;;;;;;;;;5072596;28;19908;-78
2023/11/30 14:37:20;;;;;;;;;;;;;;;;;;5074198;28;19908;-75
2023/11/30 14:39:46;;;;;;;;;;;;;;;;;;5074069;28;20393;-76
2023/11/30 14:42:12;;;;;;;;;;;;;;;;;;5073567;28;19926;-76
2023/11/30 14:44:38;;;;;;;;;;;;;;;;;;5074075;28;19909;-76
2023/11/30 14:47:06;;;;;;;;;;;;;;;;;;5074289;28;19995;-77
2023/11/30 14:49:32;;;;;;;;;;;;;;;;;;5073525;28;19923;-76
2023/11/30 14:51:58;;;;;;;;;;;;;;;;;;5074121;28;20288;-76
2023/11/30 14:54:24;;;;;;;;;;;;;;;;;;5073848;28;19909;-76
2023/11/30 14:56:50;;;;;;;;;;;;;;;;;;5072255;28;19931;-76
2023/11/30 14:59:16;;;;;;;;;;;;;;;;;;5073802;28;19915;-78
2023/11/30 15:01:42;;;;;;;;;;;;;;;;;;5073753;28;20362;-78
2023/11/30 15:04:09;;;;;;;;;;;;;;;;;;5071764;28;19947;-77
2023/11/30 15:06:35;;;;;;;;;;;;;;;;;;5073682;28;19962;-78
2023/11/30 15:09:00;;;;;;;;;;;;;;;;;;5073599;28;19916;-78
2023/11/30 15:11:26;;;;;;;;;;;;;;;;;;5073331;28;19915;-78
2023/11/30 15:13:53;;;;;;;;;;;;;;;;;;5073621;28;19947;-77
2023/11/30 15:16:19;;;;;;;;;;;;;;;;;;5073621;28;19920;-76
2023/11/30 15:18:45;;;;;;;;;;;;;;;;;;5073634;28;19954;-77
2023/11/30 15:21:11;;;;;;;;;;;;;;;;;;5072361;28;19953;-76
2023/11/30 15:23:37;;;;;;;;;;;;;;;;;;5073425;28;19909;-76
2023/11/30 15:26:02;;;;;;;;;;;;;;;;;;5072393;28;20030;-78
2023/11/30 15:28:28;;;;;;;;;;;;;;;;;;5073486;28;19928;-76
2023/11/30 15:30:54;;;;;;;;;;;;;;;;;;5071918;28;19912;-78
2023/11/30 15:33:20;;;;;;;;;;;;;;;;;;5073452;28;19909;-78
2023/11/30 15:35:46;;;;;;;;;;;;;;;;;;5073435;28;19915;-78
2023/11/30 15:38:12;;;;;;;;;;;;;;;;;;5073152;28;19924;-78
2023/11/30 15:40:38;;;;;;;;;;;;;;;;;;5073760;28;19913;-78
2023/11/30 15:43:04;;;;;;;;;;;;;;;;;;5073365;28;19944;-77
2023/11/30 15:45:30;;;;;;;;;;;;;;;;;;5072725;28;19995;-77
2023/11/30 15:47:56;;;;;;;;;;;;;;;;;;5073317;28;19963;-77
2023/11/30 15:50:24;;;;;;;;;;;;;;;;;;5073551;28;19995;-77
2023/11/30 15:52:51;;;;;;;;;;;;;;;;;;5073390;28;20374;-77
2023/11/30 15:55:17;;;;;;;;;;;;;;;;;;5073431;28;20349;-77
2023/11/30 15:57:44;;;;;;;;;;;;;;;;;;5073294;28;19916;-77
2023/11/30 16:00:10;;;;;;;;;;;;;;;;;;5071653;28;19908;-77
2023/11/30 16:02:36;;;;;;;;;;;;;;;;;;5073300;28;20276;-77
2023/11/30 16:05:02;;;;;;;;;;;;;;;;;;5073182;28;19944;-76
2023/11/30 16:07:28;;;;;;;;;;;;;;;;;;5072758;28;19936;-77
2023/11/30 16:09:54;;;;;;;;;;;;;;;;;;5073099;28;19973;-77
2023/11/30 16:12:20;;;;;;;;;;;;;;;;;;5073208;28;19908;-77
2023/11/30 16:14:46;;;;;;;;;;;;;;;;;;5073796;28;19909;-77
2023/11/30 16:17:12;;;;;;;;;;;;;;;;;;5075520;28;19912;-76
2023/11/30 16:19:38;;;;;;;;;;;;;;;;;;5076837;28;19908;-76
2023/11/30 16:22:04;;;;;;;;;;;;;;;;;;5076746;28;19908;-77
2023/11/30 16:24:29;;;;;;;;;;;;;;;;;;5076751;28;19954;-77
2023/11/30 16:26:55;;;;;;;;;;;;;;;;;;5074942;28;20006;-76
2023/11/30 16:29:21;;;;;;;;;;;;;;;;;;5075100;28;19920;-77
2023/11/30 16:31:47;;;;;;;;;;;;;;;;;;5075343;28;20284;-79
2023/11/30 16:34:15;;;;;;;;;;;;;;;;;;5073759;28;19923;-77
2023/11/30 16:36:43;;;;;;;;;;;;;;;;;;5075773;28;19953;-78
2023/11/30 16:39:12;;;;;;;;;;;;;;;;;;5076260;28;19909;-79
2023/11/30 16:41:38;;;;;;;;;;;;;;;;;;5075971;28;19912;-79
2023/11/30 16:44:04;;;;;;;;;;;;;;;;;;5074690;28;19915;-78
2023/11/30 16:46:30;;;;;;;;;;;;;;;;;;5076303;28;19951;-79
2023/11/30 16:48:56;;;;;;;;;;;;;;;;;;5075774;28;20007;-78